sensor_id;sensor_type;location;lat;lon;timestamp;P1;durP1;ratioP1;P2;durP2;ratioP2
20185;SDS011;10252;48.792;8.582;2022-12-18T00:01:17;20.83;;;10.40;;
20185;SDS011;10252;48.792;8.582;2022-12-18T00:06:18;19.15;;;9.60;;
20185;SDS011;10252;48.792;8.582;2022-12-18T00:11:20;17.80;;;9.02;;
20185;SDS011;10252;48.792;8.582;2022-12-18T00:16:22;19.65;;;9.73;;
20185;SDS011;10252;48.792;8.582;2022-12-18T00:21:24;20.95;;;9.88;;
20185;SDS011;10252;48.792;8.582;2022-12-18T00:26:27;20.83;;;10.70;;
20185;SDS011;10252;48.792;8.582;2022-12-18T00:31:31;29.02;;;11.32;;
20185;SDS011;10252;48.792;8.582;2022-12-18T00:36:34;19.40;;;9.30;;
20185;SDS011;10252;48.792;8.582;2022-12-18T00:41:36;21.27;;;10.15;;
20185;SDS011;10252;48.792;8.582;2022-12-18T00:47:08;24.65;;;11.07;;
20185;SDS011;10252;48.792;8.582;2022-12-18T00:52:09;26.70;;;11.55;;
20185;SDS011;10252;48.792;8.582;2022-12-18T00:57:10;32.72;;;14.63;;
20185;SDS011;10252;48.792;8.582;2022-12-18T01:02:14;19.80;;;9.65;;
20185;SDS011;10252;48.792;8.582;2022-12-18T01:07:16;20.08;;;9.60;;
20185;SDS011;10252;48.792;8.582;2022-12-18T01:12:17;17.45;;;8.93;;
20185;SDS011;10252;48.792;8.582;2022-12-18T01:17:18;14.77;;;8.82;;
20185;SDS011;10252;48.792;8.582;2022-12-18T01:22:19;19.08;;;9.68;;
20185;SDS011;10252;48.792;8.582;2022-12-18T01:27:20;16.20;;;9.13;;
20185;SDS011;10252;48.792;8.582;2022-12-18T01:32:22;23.85;;;9.38;;
20185;SDS011;10252;48.792;8.582;2022-12-18T01:37:23;17.75;;;8.63;;
20185;SDS011;10252;48.792;8.582;2022-12-18T01:42:25;17.50;;;9.27;;
20185;SDS011;10252;48.792;8.582;2022-12-18T01:52:36;21.80;;;9.93;;
20185;SDS011;10252;48.792;8.582;2022-12-18T01:57:40;16.20;;;8.70;;
20185;SDS011;10252;48.792;8.582;2022-12-18T02:02:42;18.13;;;8.77;;
20185;SDS011;10252;48.792;8.582;2022-12-18T02:18:10;16.02;;;8.45;;
20185;SDS011;10252;48.792;8.582;2022-12-18T02:33:39;22.95;;;9.98;;
20185;SDS011;10252;48.792;8.582;2022-12-18T02:38:42;19.85;;;8.75;;
20185;SDS011;10252;48.792;8.582;2022-12-18T02:43:53;19.42;;;8.82;;
20185;SDS011;10252;48.792;8.582;2022-12-18T02:48:55;18.13;;;8.80;;
20185;SDS011;10252;48.792;8.582;2022-12-18T02:54:09;16.77;;;8.75;;
20185;SDS011;10252;48.792;8.582;2022-12-18T02:59:13;17.27;;;8.82;;
20185;SDS011;10252;48.792;8.582;2022-12-18T03:04:26;21.35;;;8.85;;
20185;SDS011;10252;48.792;8.582;2022-12-18T03:09:35;17.60;;;8.52;;
20185;SDS011;10252;48.792;8.582;2022-12-18T03:14:38;18.30;;;8.75;;
20185;SDS011;10252;48.792;8.582;2022-12-18T03:19:42;21.00;;;9.82;;
20185;SDS011;10252;48.792;8.582;2022-12-18T03:24:45;17.40;;;8.93;;
20185;SDS011;10252;48.792;8.582;2022-12-18T03:30:06;15.95;;;7.93;;
20185;SDS011;10252;48.792;8.582;2022-12-18T03:35:11;16.52;;;7.90;;
20185;SDS011;10252;48.792;8.582;2022-12-18T03:40:14;17.90;;;7.93;;
20185;SDS011;10252;48.792;8.582;2022-12-18T03:50:22;18.67;;;9.35;;
20185;SDS011;10252;48.792;8.582;2022-12-18T03:55:30;18.98;;;8.90;;
20185;SDS011;10252;48.792;8.582;2022-12-18T04:00:36;16.05;;;8.50;;
20185;SDS011;10252;48.792;8.582;2022-12-18T04:05:42;17.83;;;8.82;;
20185;SDS011;10252;48.792;8.582;2022-12-18T04:10:44;16.23;;;8.73;;
20185;SDS011;10252;48.792;8.582;2022-12-18T04:15:45;17.90;;;8.43;;
20185;SDS011;10252;48.792;8.582;2022-12-18T04:20:49;16.42;;;8.48;;
20185;SDS011;10252;48.792;8.582;2022-12-18T04:25:51;16.00;;;8.40;;
20185;SDS011;10252;48.792;8.582;2022-12-18T04:31:04;21.92;;;8.90;;
20185;SDS011;10252;48.792;8.582;2022-12-18T04:36:06;17.13;;;7.97;;
20185;SDS011;10252;48.792;8.582;2022-12-18T04:41:08;22.17;;;10.10;;
20185;SDS011;10252;48.792;8.582;2022-12-18T04:46:12;17.13;;;8.52;;
20185;SDS011;10252;48.792;8.582;2022-12-18T04:51:14;18.77;;;9.13;;
20185;SDS011;10252;48.792;8.582;2022-12-18T04:56:15;18.00;;;7.82;;
20185;SDS011;10252;48.792;8.582;2022-12-18T05:01:17;17.45;;;7.82;;
20185;SDS011;10252;48.792;8.582;2022-12-18T05:06:18;18.25;;;8.95;;
20185;SDS011;10252;48.792;8.582;2022-12-18T05:11:19;17.05;;;8.25;;
20185;SDS011;10252;48.792;8.582;2022-12-18T05:16:20;15.02;;;7.57;;
20185;SDS011;10252;48.792;8.582;2022-12-18T05:21:21;18.17;;;8.70;;
20185;SDS011;10252;48.792;8.582;2022-12-18T05:26:22;17.13;;;7.88;;
20185;SDS011;10252;48.792;8.582;2022-12-18T05:31:23;18.13;;;8.23;;
20185;SDS011;10252;48.792;8.582;2022-12-18T05:36:24;20.38;;;9.05;;
20185;SDS011;10252;48.792;8.582;2022-12-18T05:41:26;16.52;;;8.45;;
20185;SDS011;10252;48.792;8.582;2022-12-18T05:46:27;15.10;;;7.80;;
20185;SDS011;10252;48.792;8.582;2022-12-18T05:51:29;15.88;;;8.00;;
20185;SDS011;10252;48.792;8.582;2022-12-18T05:56:31;19.58;;;9.27;;
20185;SDS011;10252;48.792;8.582;2022-12-18T06:01:32;17.63;;;9.50;;
20185;SDS011;10252;48.792;8.582;2022-12-18T06:06:33;20.65;;;9.38;;
20185;SDS011;10252;48.792;8.582;2022-12-18T06:11:35;17.83;;;8.50;;
20185;SDS011;10252;48.792;8.582;2022-12-18T06:16:36;18.55;;;8.90;;
20185;SDS011;10252;48.792;8.582;2022-12-18T06:21:37;16.02;;;7.88;;
20185;SDS011;10252;48.792;8.582;2022-12-18T06:26:38;23.85;;;9.60;;
20185;SDS011;10252;48.792;8.582;2022-12-18T06:31:39;21.40;;;9.18;;
20185;SDS011;10252;48.792;8.582;2022-12-18T06:36:41;18.85;;;9.02;;
20185;SDS011;10252;48.792;8.582;2022-12-18T06:41:42;18.30;;;7.88;;
20185;SDS011;10252;48.792;8.582;2022-12-18T06:46:43;18.52;;;8.48;;
20185;SDS011;10252;48.792;8.582;2022-12-18T06:51:44;19.35;;;8.82;;
20185;SDS011;10252;48.792;8.582;2022-12-18T06:56:46;20.45;;;9.57;;
20185;SDS011;10252;48.792;8.582;2022-12-18T07:01:47;22.30;;;10.45;;
20185;SDS011;10252;48.792;8.582;2022-12-18T07:06:48;19.80;;;10.02;;
20185;SDS011;10252;48.792;8.582;2022-12-18T07:11:49;20.45;;;9.95;;
20185;SDS011;10252;48.792;8.582;2022-12-18T07:16:50;22.60;;;11.32;;
20185;SDS011;10252;48.792;8.582;2022-12-18T07:21:51;14.77;;;7.70;;
20185;SDS011;10252;48.792;8.582;2022-12-18T07:26:52;20.08;;;9.82;;
20185;SDS011;10252;48.792;8.582;2022-12-18T07:31:53;22.27;;;10.55;;
20185;SDS011;10252;48.792;8.582;2022-12-18T07:36:54;23.13;;;10.75;;
20185;SDS011;10252;48.792;8.582;2022-12-18T07:41:55;25.13;;;11.70;;
20185;SDS011;10252;48.792;8.582;2022-12-18T07:47:15;25.67;;;11.07;;
20185;SDS011;10252;48.792;8.582;2022-12-18T07:52:16;27.75;;;12.32;;
20185;SDS011;10252;48.792;8.582;2022-12-18T07:57:17;26.08;;;11.18;;
20185;SDS011;10252;48.792;8.582;2022-12-18T08:02:18;22.63;;;10.20;;
20185;SDS011;10252;48.792;8.582;2022-12-18T08:07:19;31.30;;;13.10;;
20185;SDS011;10252;48.792;8.582;2022-12-18T08:12:20;30.58;;;12.95;;
20185;SDS011;10252;48.792;8.582;2022-12-18T08:17:21;34.05;;;13.05;;
20185;SDS011;10252;48.792;8.582;2022-12-18T08:22:22;29.70;;;12.63;;
20185;SDS011;10252;48.792;8.582;2022-12-18T08:27:23;33.20;;;13.38;;
20185;SDS011;10252;48.792;8.582;2022-12-18T08:32:25;33.97;;;13.10;;
20185;SDS011;10252;48.792;8.582;2022-12-18T08:37:27;37.28;;;15.23;;
20185;SDS011;10252;48.792;8.582;2022-12-18T08:42:28;37.25;;;15.13;;
20185;SDS011;10252;48.792;8.582;2022-12-18T08:47:48;40.83;;;17.42;;
20185;SDS011;10252;48.792;8.582;2022-12-18T08:52:49;44.25;;;17.58;;
20185;SDS011;10252;48.792;8.582;2022-12-18T08:57:50;36.03;;;15.25;;
20185;SDS011;10252;48.792;8.582;2022-12-18T09:02:51;40.90;;;17.55;;
20185;SDS011;10252;48.792;8.582;2022-12-18T09:07:52;38.90;;;17.85;;
20185;SDS011;10252;48.792;8.582;2022-12-18T09:12:53;34.65;;;16.13;;
20185;SDS011;10252;48.792;8.582;2022-12-18T09:17:56;43.90;;;18.73;;
20185;SDS011;10252;48.792;8.582;2022-12-18T09:22:57;38.50;;;16.35;;
20185;SDS011;10252;48.792;8.582;2022-12-18T09:33:14;44.20;;;18.63;;
20185;SDS011;10252;48.792;8.582;2022-12-18T09:38:16;37.00;;;16.27;;
20185;SDS011;10252;48.792;8.582;2022-12-18T09:44:05;39.42;;;16.65;;
20185;SDS011;10252;48.792;8.582;2022-12-18T09:48:40;38.70;;;16.80;;
20185;SDS011;10252;48.792;8.582;2022-12-18T09:53:44;44.80;;;17.92;;
20185;SDS011;10252;48.792;8.582;2022-12-18T09:58:50;47.40;;;19.20;;
20185;SDS011;10252;48.792;8.582;2022-12-18T10:03:54;43.00;;;16.92;;
20185;SDS011;10252;48.792;8.582;2022-12-18T10:24:17;47.35;;;19.85;;
20185;SDS011;10252;48.792;8.582;2022-12-18T10:29:20;42.75;;;19.48;;
20185;SDS011;10252;48.792;8.582;2022-12-18T10:34:21;44.20;;;17.88;;
20185;SDS011;10252;48.792;8.582;2022-12-18T10:39:23;48.15;;;19.92;;
20185;SDS011;10252;48.792;8.582;2022-12-18T10:44:26;57.33;;;26.63;;
20185;SDS011;10252;48.792;8.582;2022-12-18T10:49:28;39.60;;;18.63;;
20185;SDS011;10252;48.792;8.582;2022-12-18T10:54:30;39.13;;;17.55;;
20185;SDS011;10252;48.792;8.582;2022-12-18T10:59:32;42.03;;;18.60;;
20185;SDS011;10252;48.792;8.582;2022-12-18T11:04:51;56.30;;;21.23;;
20185;SDS011;10252;48.792;8.582;2022-12-18T11:09:59;50.72;;;21.33;;
20185;SDS011;10252;48.792;8.582;2022-12-18T11:15:03;46.15;;;20.95;;
20185;SDS011;10252;48.792;8.582;2022-12-18T11:20:06;44.90;;;21.30;;
20185;SDS011;10252;48.792;8.582;2022-12-18T11:35:47;50.65;;;23.08;;
20185;SDS011;10252;48.792;8.582;2022-12-18T11:41:38;44.78;;;22.35;;
20185;SDS011;10252;48.792;8.582;2022-12-18T11:46:13;54.22;;;24.02;;
20185;SDS011;10252;48.792;8.582;2022-12-18T11:51:16;46.22;;;22.77;;
20185;SDS011;10252;48.792;8.582;2022-12-18T12:06:24;51.85;;;23.60;;
20185;SDS011;10252;48.792;8.582;2022-12-18T12:21:40;50.78;;;24.02;;
20185;SDS011;10252;48.792;8.582;2022-12-18T12:37:11;47.17;;;23.25;;
20185;SDS011;10252;48.792;8.582;2022-12-18T12:42:29;40.00;;;21.65;;
20185;SDS011;10252;48.792;8.582;2022-12-18T12:47:50;48.58;;;22.13;;
20185;SDS011;10252;48.792;8.582;2022-12-18T12:52:53;39.88;;;20.23;;
20185;SDS011;10252;48.792;8.582;2022-12-18T13:03:08;46.97;;;25.90;;
20185;SDS011;10252;48.792;8.582;2022-12-18T13:08:22;53.20;;;26.45;;
20185;SDS011;10252;48.792;8.582;2022-12-18T13:13:23;53.97;;;27.45;;
20185;SDS011;10252;48.792;8.582;2022-12-18T13:18:24;50.67;;;26.00;;
20185;SDS011;10252;48.792;8.582;2022-12-18T13:23:30;50.75;;;25.92;;
20185;SDS011;10252;48.792;8.582;2022-12-18T13:33:46;54.28;;;30.58;;
20185;SDS011;10252;48.792;8.582;2022-12-18T13:38:47;53.22;;;27.35;;
20185;SDS011;10252;48.792;8.582;2022-12-18T13:49:40;59.35;;;28.45;;
20185;SDS011;10252;48.792;8.582;2022-12-18T13:54:42;50.95;;;24.95;;
20185;SDS011;10252;48.792;8.582;2022-12-18T13:59:43;46.67;;;24.08;;
20185;SDS011;10252;48.792;8.582;2022-12-18T14:04:45;46.30;;;22.50;;
20185;SDS011;10252;48.792;8.582;2022-12-18T14:09:47;46.35;;;24.90;;
20185;SDS011;10252;48.792;8.582;2022-12-18T14:14:50;55.85;;;27.58;;
20185;SDS011;10252;48.792;8.582;2022-12-18T14:19:51;54.20;;;24.92;;
20185;SDS011;10252;48.792;8.582;2022-12-18T14:25:10;54.95;;;26.30;;
20185;SDS011;10252;48.792;8.582;2022-12-18T14:35:28;54.80;;;24.75;;
20185;SDS011;10252;48.792;8.582;2022-12-18T14:40:29;52.90;;;24.60;;
20185;SDS011;10252;48.792;8.582;2022-12-18T14:45:34;52.15;;;25.25;;
20185;SDS011;10252;48.792;8.582;2022-12-18T14:50:38;56.90;;;25.80;;
20185;SDS011;10252;48.792;8.582;2022-12-18T14:55:39;50.92;;;23.15;;
20185;SDS011;10252;48.792;8.582;2022-12-18T15:00:46;51.67;;;23.75;;
20185;SDS011;10252;48.792;8.582;2022-12-18T15:05:47;52.83;;;24.02;;
20185;SDS011;10252;48.792;8.582;2022-12-18T15:10:48;47.70;;;22.40;;
20185;SDS011;10252;48.792;8.582;2022-12-18T15:15:50;49.33;;;24.08;;
20185;SDS011;10252;48.792;8.582;2022-12-18T15:20:56;51.53;;;24.30;;
20185;SDS011;10252;48.792;8.582;2022-12-18T15:36:02;60.55;;;29.02;;
20185;SDS011;10252;48.792;8.582;2022-12-18T15:41:04;52.88;;;26.17;;
20185;SDS011;10252;48.792;8.582;2022-12-18T15:46:09;56.08;;;26.75;;
20185;SDS011;10252;48.792;8.582;2022-12-18T15:56:16;73.43;;;32.40;;
20185;SDS011;10252;48.792;8.582;2022-12-18T16:01:36;62.28;;;28.55;;
20185;SDS011;10252;48.792;8.582;2022-12-18T16:06:37;67.45;;;32.17;;
20185;SDS011;10252;48.792;8.582;2022-12-18T16:11:39;62.83;;;31.30;;
20185;SDS011;10252;48.792;8.582;2022-12-18T16:16:42;75.80;;;38.95;;
20185;SDS011;10252;48.792;8.582;2022-12-18T16:21:44;65.78;;;31.60;;
20185;SDS011;10252;48.792;8.582;2022-12-18T16:26:46;54.53;;;27.48;;
20185;SDS011;10252;48.792;8.582;2022-12-18T16:31:47;61.28;;;29.20;;
20185;SDS011;10252;48.792;8.582;2022-12-18T16:36:49;61.60;;;30.40;;
20185;SDS011;10252;48.792;8.582;2022-12-18T16:41:50;55.97;;;26.85;;
20185;SDS011;10252;48.792;8.582;2022-12-18T16:46:51;63.22;;;28.92;;
20185;SDS011;10252;48.792;8.582;2022-12-18T16:51:52;58.67;;;29.17;;
20185;SDS011;10252;48.792;8.582;2022-12-18T16:56:53;66.28;;;28.58;;
20185;SDS011;10252;48.792;8.582;2022-12-18T17:01:55;57.05;;;27.00;;
20185;SDS011;10252;48.792;8.582;2022-12-18T17:06:56;63.00;;;28.95;;
20185;SDS011;10252;48.792;8.582;2022-12-18T17:11:57;60.42;;;27.48;;
20185;SDS011;10252;48.792;8.582;2022-12-18T17:16:59;62.67;;;28.27;;
20185;SDS011;10252;48.792;8.582;2022-12-18T17:22:00;64.13;;;27.65;;
20185;SDS011;10252;48.792;8.582;2022-12-18T17:27:02;56.17;;;27.15;;
20185;SDS011;10252;48.792;8.582;2022-12-18T17:32:04;57.45;;;26.60;;
20185;SDS011;10252;48.792;8.582;2022-12-18T17:37:05;56.13;;;26.65;;
20185;SDS011;10252;48.792;8.582;2022-12-18T17:42:06;57.58;;;26.38;;
20185;SDS011;10252;48.792;8.582;2022-12-18T17:47:09;58.75;;;26.88;;
20185;SDS011;10252;48.792;8.582;2022-12-18T17:52:11;62.22;;;28.13;;
20185;SDS011;10252;48.792;8.582;2022-12-18T17:57:13;58.33;;;26.77;;
20185;SDS011;10252;48.792;8.582;2022-12-18T18:02:14;64.93;;;28.95;;
20185;SDS011;10252;48.792;8.582;2022-12-18T18:07:15;49.10;;;24.17;;
20185;SDS011;10252;48.792;8.582;2022-12-18T18:12:18;58.92;;;27.90;;
20185;SDS011;10252;48.792;8.582;2022-12-18T18:17:38;56.25;;;26.25;;
20185;SDS011;10252;48.792;8.582;2022-12-18T18:22:39;60.03;;;27.40;;
20185;SDS011;10252;48.792;8.582;2022-12-18T18:27:40;55.70;;;26.45;;
20185;SDS011;10252;48.792;8.582;2022-12-18T18:32:41;61.22;;;28.10;;
20185;SDS011;10252;48.792;8.582;2022-12-18T18:37:46;67.53;;;29.95;;
20185;SDS011;10252;48.792;8.582;2022-12-18T18:42:47;55.70;;;27.55;;
20185;SDS011;10252;48.792;8.582;2022-12-18T18:47:48;62.53;;;26.85;;
20185;SDS011;10252;48.792;8.582;2022-12-18T18:52:49;55.95;;;26.30;;
20185;SDS011;10252;48.792;8.582;2022-12-18T18:57:51;53.50;;;25.33;;
20185;SDS011;10252;48.792;8.582;2022-12-18T19:02:52;53.28;;;24.92;;
20185;SDS011;10252;48.792;8.582;2022-12-18T19:07:54;51.20;;;24.95;;
20185;SDS011;10252;48.792;8.582;2022-12-18T19:12:55;51.70;;;25.50;;
20185;SDS011;10252;48.792;8.582;2022-12-18T19:18:15;57.97;;;26.80;;
20185;SDS011;10252;48.792;8.582;2022-12-18T19:23:16;56.78;;;25.70;;
20185;SDS011;10252;48.792;8.582;2022-12-18T19:28:17;54.72;;;25.40;;
20185;SDS011;10252;48.792;8.582;2022-12-18T19:33:19;49.60;;;23.45;;
20185;SDS011;10252;48.792;8.582;2022-12-18T19:38:20;56.55;;;25.92;;
20185;SDS011;10252;48.792;8.582;2022-12-18T19:43:22;57.63;;;28.40;;
20185;SDS011;10252;48.792;8.582;2022-12-18T19:48:23;47.88;;;23.27;;
20185;SDS011;10252;48.792;8.582;2022-12-18T19:53:24;42.47;;;21.27;;
20185;SDS011;10252;48.792;8.582;2022-12-18T19:58:25;46.75;;;23.60;;
20185;SDS011;10252;48.792;8.582;2022-12-18T20:03:26;42.88;;;21.20;;
20185;SDS011;10252;48.792;8.582;2022-12-18T20:08:27;46.58;;;22.02;;
20185;SDS011;10252;48.792;8.582;2022-12-18T20:13:29;43.38;;;20.42;;
20185;SDS011;10252;48.792;8.582;2022-12-18T20:18:30;46.20;;;20.67;;
20185;SDS011;10252;48.792;8.582;2022-12-18T20:23:31;39.83;;;18.50;;
20185;SDS011;10252;48.792;8.582;2022-12-18T20:28:32;41.72;;;20.38;;
20185;SDS011;10252;48.792;8.582;2022-12-18T20:33:34;39.92;;;18.95;;
20185;SDS011;10252;48.792;8.582;2022-12-18T20:38:35;36.83;;;17.73;;
20185;SDS011;10252;48.792;8.582;2022-12-18T20:43:38;40.28;;;18.90;;
20185;SDS011;10252;48.792;8.582;2022-12-18T20:48:39;36.80;;;16.50;;
20185;SDS011;10252;48.792;8.582;2022-12-18T20:53:40;35.00;;;17.13;;
20185;SDS011;10252;48.792;8.582;2022-12-18T20:58:41;36.38;;;15.85;;
20185;SDS011;10252;48.792;8.582;2022-12-18T21:03:43;29.15;;;15.90;;
20185;SDS011;10252;48.792;8.582;2022-12-18T21:08:45;28.23;;;13.82;;
20185;SDS011;10252;48.792;8.582;2022-12-18T21:13:46;30.88;;;15.95;;
20185;SDS011;10252;48.792;8.582;2022-12-18T21:18:47;27.10;;;12.90;;
20185;SDS011;10252;48.792;8.582;2022-12-18T21:23:48;29.25;;;14.02;;
20185;SDS011;10252;48.792;8.582;2022-12-18T21:28:53;30.30;;;14.45;;
20185;SDS011;10252;48.792;8.582;2022-12-18T21:33:55;32.17;;;15.52;;
20185;SDS011;10252;48.792;8.582;2022-12-18T21:38:56;25.17;;;13.60;;
20185;SDS011;10252;48.792;8.582;2022-12-18T21:43:57;23.40;;;12.20;;
20185;SDS011;10252;48.792;8.582;2022-12-18T21:49:05;26.30;;;12.10;;
20185;SDS011;10252;48.792;8.582;2022-12-18T21:54:07;22.60;;;11.23;;
20185;SDS011;10252;48.792;8.582;2022-12-18T22:04:10;22.50;;;11.75;;
20185;SDS011;10252;48.792;8.582;2022-12-18T22:09:13;25.00;;;12.20;;
20185;SDS011;10252;48.792;8.582;2022-12-18T22:14:14;23.92;;;11.25;;
20185;SDS011;10252;48.792;8.582;2022-12-18T22:19:18;22.02;;;11.30;;
20185;SDS011;10252;48.792;8.582;2022-12-18T22:24:21;24.95;;;12.88;;
20185;SDS011;10252;48.792;8.582;2022-12-18T22:29:22;21.15;;;11.50;;
20185;SDS011;10252;48.792;8.582;2022-12-18T22:34:42;20.77;;;10.65;;
20185;SDS011;10252;48.792;8.582;2022-12-18T22:39:44;24.40;;;11.50;;
20185;SDS011;10252;48.792;8.582;2022-12-18T22:44:45;25.92;;;13.70;;
20185;SDS011;10252;48.792;8.582;2022-12-18T22:49:46;36.15;;;19.92;;
20185;SDS011;10252;48.792;8.582;2022-12-18T22:54:47;19.52;;;10.00;;
20185;SDS011;10252;48.792;8.582;2022-12-18T22:59:48;18.15;;;9.30;;
20185;SDS011;10252;48.792;8.582;2022-12-18T23:04:50;22.08;;;8.02;;
20185;SDS011;10252;48.792;8.582;2022-12-18T23:09:51;12.52;;;7.22;;
20185;SDS011;10252;48.792;8.582;2022-12-18T23:14:52;13.55;;;7.32;;
20185;SDS011;10252;48.792;8.582;2022-12-18T23:19:53;9.60;;;5.45;;
20185;SDS011;10252;48.792;8.582;2022-12-18T23:24:54;8.65;;;5.10;;
20185;SDS011;10252;48.792;8.582;2022-12-18T23:29:56;6.75;;;4.30;;
20185;SDS011;10252;48.792;8.582;2022-12-18T23:34:57;8.75;;;4.80;;
20185;SDS011;10252;48.792;8.582;2022-12-18T23:39:58;10.43;;;6.10;;
20185;SDS011;10252;48.792;8.582;2022-12-18T23:44:59;11.23;;;6.03;;
20185;SDS011;10252;48.792;8.582;2022-12-18T23:50:00;10.30;;;5.93;;
20185;SDS011;10252;48.792;8.582;2022-12-18T23:55:01;11.35;;;5.85;;
